Latest Coastal Weather Observations for Tasman Island

IDT60701

Issued at 6:42 pm EST Friday 23 June 2017 (issued every 10 minutes, with the page automatically refreshed every 10 minutes)

About coastal observations | Map of coastal stations | Coastal observations for TAS | Marine services | Other Formats
Station Details ID: 094155 Name: TASMAN ISLAND Lat: -43.24 Lon: 148.00 Height: 240.0 m
Data from the previous 72 hours. | See also: Recent months at Tasman Island
Date/Time
EST
Temp
°C
Wind Pressure Rain since
9am
mm
Weather Cloud Vis
km
Sea
Height
m
Swell
Dir  Spd
kts
Gust
kts
hPa Trend Height
m
Period
s
Dir
23/06:30pm 6.2 NW 10 39 999.8 - 3.8 - - - - - - -
23/06:13pm 6.2 WNW 10 38 999.9 - 3.8 - - - - - - -
23/06:00pm 6.3 N 9 30 1000.0 - 3.8 Recent precip. - - - - - -
23/05:30pm 6.4 W 11 33 1000.1 - 3.8 - - - - - - -
23/05:00pm 5.5 SW 17 41 998.9 - 2.8 - - - - - - -
23/04:44pm 5.9 SSW 22 44 999.2 - 2.2 - - - - - - -
23/04:42pm 5.8 SSW 23 44 998.9 - 2.2 - - - - - - -
23/04:30pm 6.3 SSW 21 40 999.3 - 1.4 - - - - - - -
23/04:18pm 7.1 SW 11 41 999.2 - 0.8 - - - - - - -
23/04:00pm 9.6 W 6 17 999.2 - 0.4 - - - - - - -
23/03:30pm 9.3 WNW 8 20 999.1 - 0.4 - - - - - - -
23/03:00pm 9.3 WSW 7 21 999.0 - 0.4 Rain - - - - - -
23/02:45pm 11.0 WNW 11 26 999.0 - 0.0 - - - - - - -
23/02:30pm 12.2 NW 22 35 998.5 - 0.0 - - - - - - -
23/02:00pm 13.0 NW 25 37 998.6 - 0.0 - - - - - - -
23/01:30pm 13.3 NW 20 35 999.2 - 0.0 - - - - - - -
23/01:05pm 13.3 NW 22 32 999.8 - 0.0 - - - - - - -
23/01:00pm 13.2 NW 24 34 999.9 - 0.0 - - - - - - -
23/12:30pm 13.1 NW 20 30 1000.8 - 0.0 - - - - - - -
23/12:03pm 12.8 NW 15 27 1001.9 - 0.0 - - - - - - -
23/12:00pm 12.9 NW 14 23 1002.0 - 0.0 - - - - - - -
23/11:34am 12.6 NNW 17 27 1002.5 - 0.0 - - - - - - -
23/11:30am 12.5 NW 18 27 1002.6 - 0.0 - - - - - - -
23/11:00am 11.6 NW 23 36 1003.3 - 0.0 - - - - - - -
23/10:30am 11.5 NW 22 33 1004.2 - 0.0 - - - - - - -
23/10:00am 10.9 NW 26 39 1004.6 - 0.0 - - - - - - -
23/09:30am 10.2 NW 26 36 1005.3 - 0.0 - - - - - - -
23/09:04am 10.4 NW 20 30 1005.9 - 0.0 - - - - - - -
23/09:00am 10.4 NNW 19 28 1005.9 - 0.0 - - - - - - -
23/08:41am 9.6 NNW 15 25 1006.3 - 0.0 - - - - - - -
23/08:30am 9.5 NW 15 23 1006.6 - 0.0 - - - - - - -
23/08:00am 9.0 NNW 13 19 1007.3 - 0.0 - - - - - - -
23/07:36am 9.7 NW 16 27 1007.5 - 0.0 - - - - - - -
23/07:30am 9.3 NW 14 20 1007.6 - 0.0 - - - - - - -
23/07:00am 8.8 N 15 25 1008.1 - 0.0 - - - - - - -
23/06:30am 8.9 N 15 23 1008.3 - 0.0 - - - - - - -
23/06:11am 9.2 N 15 25 1008.1 - 0.0 - - - - - - -
23/06:00am 9.1 N 13 21 1008.3 - 0.0 - - - - - - -
23/05:30am 8.6 N 11 19 1008.8 - 0.0 - - - - - - -
23/05:00am 8.5 N 16 23 1009.2 - 0.0 - - - - - - -
23/04:30am 8.1 NNW 11 20 1009.7 - 0.0 - - - - - - -
23/04:00am 8.2 NNW 12 19 1010.2 - 0.0 - - - - - - -
23/03:30am 8.4 NW 13 22 1010.6 - 0.0 - - - - - - -
23/03:00am 7.9 NNW 11 15 1011.3 - 0.0 - - - - - - -
23/02:30am 7.9 NNW 13 19 1012.1 - 0.0 - - - - - - -
23/02:00am 7.5 NNW 12 18 1012.5 - 0.0 - - - - - - -
23/01:30am 7.8 NNW 13 21 1012.9 - 0.0 - - - - - - -
23/01:00am 7.6 NNW 12 21 1013.2 - 0.0 - - - - - - -
23/12:30am 7.3 NNW 13 19 1013.7 - 0.0 - - - - - - -
23/12:00am 7.2 NNW 14 19 1014.3 - 0.0 - - - - - - -
 
Date/Time
EST
Temp
°C
Wind Pressure Rain since
9am
mm
Weather Cloud Vis
km
Sea
Height
m
Swell
Dir  Spd
kts
Gust
kts
hPa Trend Height
m
Period
s
Dir
22/11:30pm 7.1 NW 14 19 1014.8 - 0.0 - - - - - - -
22/11:00pm 7.1 NNW 12 18 1015.3 - 0.0 - - - - - - -
22/10:30pm 6.9 NNW 12 21 1015.8 - 0.0 - - - - - - -
22/10:00pm 7.1 NNW 11 17 1016.1 - 0.0 - - - - - - -
22/09:30pm 7.6 NW 12 21 1016.5 - 0.0 - - - - - - -
22/09:00pm 7.3 NNW 11 17 1016.9 - 0.0 - - - - - - -
22/08:30pm 6.9 NNW 10 15 1017.1 - 0.0 - - - - - - -
22/08:00pm 7.0 N 11 16 1017.3 - 0.0 - - - - - - -
22/07:30pm 7.0 N 11 15 1017.8 - 0.0 - - - - - - -
22/07:00pm 7.3 NNW 11 19 1018.0 - 0.0 - - - - - - -
22/06:30pm 7.2 NNW 12 17 1018.3 - 0.0 - - - - - - -
22/06:00pm 6.8 NNW 11 14 1018.8 - 0.0 - - - - - - -
22/05:30pm 6.8 NNW 10 15 1018.9 - 0.0 - - - - - - -
22/05:00pm 6.9 NW 8 13 1019.4 - 0.0 - - - - - - -
22/04:30pm 7.3 WNW 11 15 1019.6 - 0.0 - - - - - - -
22/04:00pm 7.4 NW 9 16 1019.7 - 0.0 - - - - - - -
22/03:30pm 7.8 WNW 9 16 1020.1 - 0.0 - - - - - - -
22/03:00pm 7.6 NW 6 11 1020.6 - 0.0 - - - - - - -
22/02:30pm 8.1 NW 9 13 1020.7 - 0.0 - - - - - - -
22/02:00pm 8.4 NW 12 16 1021.3 - 0.0 - - - - - - -
22/01:30pm 8.8 NW 11 20 1021.5 - 0.0 - - - - - - -
22/01:00pm 8.5 NW 12 21 1022.1 - 0.0 - - - - - - -
22/12:30pm 8.6 NNW 10 19 1022.7 - 0.0 - - - - - - -
22/12:00pm 8.3 NW 13 20 1023.2 - 0.0 - - - - - - -
22/11:30am 8.6 NNW 12 18 1023.6 - 0.0 - - - - - - -
22/11:00am 8.8 NW 9 15 1024.4 - 0.0 - - - - - - -
22/10:30am 8.3 NW 10 19 1024.8 - 0.0 - - - - - - -
22/10:00am 8.0 NW 12 17 1025.2 - 0.0 - - - - - - -
22/09:30am 7.5 NNW 12 19 1025.2 - 0.0 - - - - - - -
22/09:00am 7.3 NNW 13 18 1025.4 - 0.4 - - - - - - -
22/08:30am 6.8 NNW 12 18 1025.5 - 0.4 - - - - - - -
22/08:00am 6.2 NNW 13 18 1025.8 - 0.4 - - - - - - -
22/07:30am 5.8 N 13 16 1026.1 - 0.4 - - - - - - -
22/07:00am 5.4 N 12 15 1026.0 - 0.4 - - - - - - -
22/06:30am 5.6 NNW 10 12 1026.3 - 0.4 - - - - - - -
22/06:00am 5.7 N 10 13 1026.3 - 0.4 - - - - - - -
22/05:30am 5.4 N 10 13 1026.6 - 0.4 - - - - - - -
22/05:00am 6.1 NNW 9 14 1026.5 - 0.4 - - - - - - -
22/04:30am 6.3 NNW 12 17 1026.7 - 0.4 - - - - - - -
22/04:00am 5.7 NNW 8 12 1027.0 - 0.4 - - - - - - -
22/03:30am 5.0 N 7 10 1027.2 - 0.4 - - - - - - -
22/03:00am 5.3 WNW 5 7 1027.4 - 0.4 - - - - - - -
22/02:30am 5.2 WNW 6 8 1027.7 - 0.4 - - - - - - -
22/02:00am 5.5 W 4 7 1027.9 - 0.4 - - - - - - -
22/01:30am 5.5 NW 4 9 1027.8 - 0.4 - - - - - - -
22/01:00am 5.4 W 3 8 1028.0 - 0.4 - - - - - - -
22/12:30am 5.6 WNW 5 11 1028.0 - 0.4 - - - - - - -
22/12:00am 5.5 WNW 6 11 1028.3 - 0.4 - - - - - - -
 
Date/Time
EST
Temp
°C
Wind Pressure Rain since
9am
mm
Weather Cloud Vis
km
Sea
Height
m
Swell
Dir  Spd
kts
Gust
kts
hPa Trend Height
m
Period
s
Dir
21/11:30pm 5.6 NW 7 12 1028.5 - 0.4 - - - - - - -
21/11:00pm 5.7 NW 9 12 1028.5 - 0.4 - - - - - - -
21/10:30pm 5.6 NW 8 13 1028.6 - 0.4 - - - - - - -
21/10:00pm 6.0 WNW 9 13 1028.6 - 0.4 - - - - - - -
21/09:30pm 6.1 WNW 4 11 1028.7 - 0.4 - - - - - - -
21/09:00pm 6.3 WNW 4 11 1028.6 - 0.4 - - - - - - -
21/08:30pm 6.1 WNW 3 8 1028.4 - 0.4 - - - - - - -
21/08:00pm 6.4 WSW 3 9 1028.4 - 0.4 - - - - - - -
21/07:30pm 6.5 NW 6 13 1028.4 - 0.4 - - - - - - -
21/07:00pm 6.7 NNW 3 9 1028.1 - 0.4 - - - - - - -
21/06:30pm 6.8 N 3 8 1027.9 - 0.4 - - - - - - -
21/06:00pm 6.8 WSW 8 19 1027.5 - 0.4 - - - - - - -
21/05:30pm 6.5 WNW 4 12 1027.2 - 0.4 - - - - - - -
21/05:00pm 6.7 WSW 7 18 1026.8 - 0.4 - - - - - - -
21/04:30pm 6.3 W 8 20 1026.6 - 0.4 - - - - - - -
21/04:00pm 6.6 W 6 17 1026.3 - 0.2 - - - - - - -
21/03:30pm 7.5 WSW 5 17 1026.0 - 0.0 - - - - - - -
21/03:00pm 7.4 SSE 5 14 1025.8 - 0.0 - - - - - - -
21/02:30pm 7.5 NNW 5 21 1025.4 - 0.0 - - - - - - -
21/02:00pm 8.1 W 5 15 1025.1 - 0.0 - - - - - - -
21/01:30pm 7.0 SW 7 22 1025.0 - 0.0 - - - - - - -
21/01:00pm 7.5 WSW 6 18 1024.8 - 0.0 - - - - - - -
21/12:30pm 6.5 WSW 10 21 1024.8 - 0.0 - - - - - - -
21/12:00pm 8.3 WSW 6 20 1024.6 - 0.0 - - - - - - -
21/11:30am 7.8 SW 5 17 1024.3 - 0.0 - - - - - - -
21/11:00am 7.4 W 7 20 1024.3 - 0.0 - - - - - - -
21/10:30am 6.8 WSW 9 21 1024.4 - 0.0 - - - - - - -
21/10:00am 7.3 WSW 8 21 1023.8 - 0.0 - - - - - - -
21/09:30am 7.0 WSW 9 29 1023.4 - 0.0 - - - - - - -
21/09:18am 6.5 SW 18 32 1023.2 - 0.0 - - - - - - -
21/09:06am 6.3 SW 19 40 1022.7 - 0.0 - - - - - - -
21/09:03am 6.9 SW 14 31 1022.9 - 0.0 - - - - - - -
21/09:00am 7.0 WSW 13 31 1022.9 - - Rain - - - - - -
21/08:30am 6.2 WSW 15 29 1022.7 - - - - - - - - -
21/08:12am 7.1 SW 13 32 1022.0 - - - - - - - - -
21/08:00am 7.1 SSW 7 23 1021.9 - - - - - - - - -
21/07:30am 6.8 NNW 5 22 1021.5 - - - - - - - - -
21/07:00am 6.7 W 8 20 1020.6 - - - - - - - - -
21/06:30am 6.1 WSW 9 23 1020.1 - - - - - - - - -
21/06:00am 6.7 W 5 15 1019.6 - - Recent precip. - - - - - -
21/05:30am 6.1 WNW 6 16 1019.2 - - - - - - - - -
21/05:06am 6.2 SW 12 30 1018.4 - - - - - - - - -
21/05:00am 7.1 S 6 23 1018.4 - - - - - - - - -
21/04:30am 7.6 WSW 9 22 1018.1 - - - - - - - - -
21/04:00am 7.8 NNW 7 23 1017.2 - - - - - - - - -
21/03:30am 7.5 NW 11 26 1017.0 - - - - - - - - -
21/03:00am 8.0 WNW 6 21 1017.1 - - - - - - - - -
21/02:30am 8.0 NNW 8 23 1016.1 - - - - - - - - -
21/02:00am 8.2 W 11 35 1014.8 - - - - - - - - -
21/01:30am 8.4 NW 7 24 1014.6 - - - - - - - - -
21/01:00am 8.3 NW 6 16 1014.9 - - - - - - - - -
21/12:30am 7.7 NW 8 24 1014.2 - - - - - - - - -
21/12:00am 8.8 NNW 8 25 1013.4 - - - - - - - - -
 
Date/Time
EST
Temp
°C
Wind Pressure Rain since
9am
mm
Weather Cloud Vis
km
Sea
Height
m
Swell
Dir  Spd
kts
Gust
kts
hPa Trend Height
m
Period
s
Dir
20/11:30pm 9.3 WNW 8 30 1013.3 - - - - - - - - -
20/11:00pm 9.6 WSW 5 19 1013.4 - - - - - - - - -
20/10:30pm 9.8 WNW 6 18 1012.4 - - - - - - - - -
20/10:00pm 9.1 WNW 8 25 1012.1 - - - - - - - - -
20/09:30pm 9.2 WSW 10 31 1011.0 - - - - - - - - -
20/09:00pm 10.2 SW 10 36 1011.1 - 2.2 Rain - - - - - -
20/08:52pm 10.3 WSW 11 36 1010.5 - 1.6 - - - - - - -
20/08:49pm 11.3 WNW 10 27 1010.5 - 0.4 - - - - - - -
20/08:30pm 12.5 WNW 23 36 1009.7 - 0.0 - - - - - - -
20/08:22pm 12.9 NW 23 35 1009.4 - 0.0 - - - - - - -
20/08:00pm 12.9 NNW 16 27 1009.3 - 0.0 - - - - - - -
20/07:33pm 13.1 NNW 15 26 1009.5 - 0.0 - - - - - - -
20/07:30pm 13.2 NNW 15 22 1009.4 - 0.0 - - - - - - -
20/07:00pm 13.4 NNW 20 32 1009.6 - 0.0 - - - - - - -

Other Formats:

Comma delimited format used in spreadsheet applications
http://www.bom.gov.au/fwo/IDT60701/IDT60701.95986.axf

JavaScript Object Notation format (JSON) in row-major order
http://www.bom.gov.au/fwo/IDT60701/IDT60701.95986.json